Flight Track Log - Related Links

Times and Time Zones

All times are in EDT time to prevent confusion due to time zone crossing. See the UAL1647 flight status page for this flight to view local times or setup timezone preferences in your user account.

Time Position Orientation Groundspeed Altitude Reporting Facility
EDT Latitude Longitude Course Direction KTS MPH feet Rate Location/Type
Sat 12:50:11 PM 37.6500 -122.3500 70° East 184 212 900  Level Northern Cal TRACON
Sat 12:51:11 PM 37.6833 -122.3000 50° Northeast 236 272 2,900 2,050 Climbing Northern Cal TRACON
Sat 12:52:00 PM 37.6370 -122.4340 117° Southeast  Level FlightAware Approximate
Sat 12:52:11 PM 37.7333 -122.2333 47° Northeast 271 312 5,000  Level Northern Cal TRACON
Sat 12:53:00 PM 37.6402 -122.2894 72° East  Level FlightAware Approximate
Sat 12:53:12 PM 37.7500 -122.1500 76° East 285 328 7,400  Level Northern Cal TRACON
Sat 12:54:00 PM 37.6858 -122.1452 58° Northeast  Level FlightAware Approximate
Sat 12:54:12 PM 37.7833 -122.0500 67° East 299 344 10,100  Level Northern Cal TRACON
Sat 12:55:00 PM 37.7330 -122.0012 70° East  Level FlightAware Approximate
Sat 12:55:18 PM 37.8097 -121.9381 73° East 300 345 12,800  Level Oakland Center
Sat 12:56:20 PM 37.8428 -121.8258 70° East 340 391 14,100 1,707 Climbing Oakland Center
Sat 12:57:21 PM 37.8761 -121.7050 71° East 364 419 16,300 2,213 Climbing Oakland Center
Sat 12:58:22 PM 37.9122 -121.5800 70° East 376 433 18,600 2,115 Climbing Oakland Center
Sat 12:59:23 PM 37.9481 -121.4564 70° East 384 442 20,600 2,049 Climbing Oakland Center
Sat 01:00:25 PM 37.9919 -121.2975 71° East 398 458 22,800 1,805 Climbing Oakland Center
Sat 01:01:26 PM 38.0297 -121.1647 70° East 402 463 24,300 1,377 Climbing Oakland Center
Sat 01:02:27 PM 38.0672 -121.0264 71° East 414 476 25,600 1,279 Climbing Oakland Center
Sat 01:03:28 PM 38.1033 -120.8842 72° East 423 487 26,900 1,171 Climbing Oakland Center
Sat 01:04:30 PM 38.1294 -120.7342 77° East 435 501 28,000 1,073 Climbing Oakland Center
Sat 01:05:31 PM 38.1578 -120.5819 77° East 442 509 29,100 934 Climbing Oakland Center
Sat 01:06:32 PM 38.1847 -120.4264 78° East 453 521 29,900 639 Climbing Oakland Center
Sat 01:07:33 PM 38.2131 -120.2658 77° East 462 532 30,400 585 Climbing Oakland Center
Sat 01:08:35 PM 38.2428 -120.1017 77° East 474 545 31,100 976 Climbing Oakland Center
Sat 01:09:36 PM 38.2769 -119.9011 78° East 483 556 32,400 1,082 Climbing Oakland Center
Sat 01:10:37 PM 38.3056 -119.7358 78° East 480 552 33,300 787 Climbing Oakland Center
Sat 01:11:38 PM 38.3344 -119.5694 77° East 481 554 34,000 537 Climbing Oakland Center
Sat 01:12:40 PM 38.3594 -119.4100 79° East 484 557 34,400 390 Climbing Oakland Center
Sat 01:13:41 PM 38.3881 -119.2397 78° East 492 566 34,800 295 Climbing Oakland Center
Sat 01:14:42 PM 38.4175 -119.0669 78° East 500 575 35,000 98 Climbing Oakland Center
Sat 01:15:43 PM 38.4511 -118.8622 78° East 496 571 35,000  Level Oakland Center
Sat 01:16:45 PM 38.4783 -118.6936 78° East 491 565 35,000  Level Oakland Center
Sat 01:17:46 PM 38.5056 -118.5242 78° East 490 564 35,000  Level Oakland Center
Sat 01:18:47 PM 38.5328 -118.3550 78° East 490 564 35,000  Level Oakland Center
Sat 01:19:48 PM 38.5592 -118.1858 79° East 488 562 35,000  Level Oakland Center
Sat 01:20:50 PM 38.5839 -118.0239 79° East 490 564 35,000  Level Oakland Center
Sat 01:21:51 PM 38.6103 -117.8525 79° East 490 564 35,000  Level Oakland Center
Sat 01:22:44 PM 38.6361 -117.6778 79° East 495 570 35,000  Level Salt Lake Center
Sat 01:23:45 PM 38.6628 -117.5044 79° East 495 570 35,000  Level Salt Lake Center
Sat 01:24:55 PM 38.6947 -117.2944 79° East 497 572 35,000  Level Oakland Center
Sat 01:25:48 PM 38.7142 -117.1531 80° East 499 574 35,000  Level Salt Lake Center
Sat 01:26:49 PM 38.7403 -116.9769 79° East 500 575 35,000  Level Salt Lake Center
Sat 01:27:51 PM 38.7664 -116.8003 79° East 501 577 35,000  Level Salt Lake Center
Sat 01:28:52 PM 38.7914 -116.6244 80° East 500 575 35,000  Level Salt Lake Center
Sat 01:30:01 PM 38.8217 -116.4114 80° East 504 580 35,000  Level Oakland Center
Sat 01:30:55 PM 38.8406 -116.2706 80° East 503 579 35,000  Level Salt Lake Center
Sat 01:31:56 PM 38.8708 -116.0572 80° East 504 580 35,000  Level Salt Lake Center
Sat 01:32:58 PM 38.8947 -115.8789 80° East 506 582 35,000  Level Salt Lake Center
Sat 01:33:59 PM 38.9186 -115.7025 80° East 502 578 35,000  Level Salt Lake Center
Sat 01:35:01 PM 38.9428 -115.5242 80° East 505 581 35,000  Level Salt Lake Center
Sat 01:36:02 PM 38.9669 -115.3400 80° East 504 580 35,000  Level Salt Lake Center
Sat 01:37:04 PM 38.9914 -115.1614 80° East 509 586 35,000  Level Salt Lake Center
Sat 01:38:05 PM 39.0133 -114.9839 81° East 506 582 35,000  Level Salt Lake Center
Sat 01:39:07 PM 39.0353 -114.8061 81° East 504 580 35,000  Level Salt Lake Center
Sat 01:40:08 PM 39.0600 -114.6247 80° East 509 586 35,000  Level Salt Lake Center
Sat 01:41:10 PM 39.0822 -114.4469 81° East 507 583 35,000  Level Salt Lake Center
Sat 01:42:12 PM 39.1022 -114.2708 82° East 501 577 35,000  Level Salt Lake Center
Sat 01:43:13 PM 39.1292 -114.0569 81° East 503 579 35,000  Level Salt Lake Center
Sat 01:44:15 PM 39.1492 -113.8789 82° East 503 579 35,000  Level Salt Lake Center
Sat 01:45:17 PM 39.1697 -113.7006 81° East 504 580 35,000  Level Salt Lake Center
Sat 01:46:18 PM 39.1911 -113.5211 81° East 505 581 35,000  Level Salt Lake Center
Sat 01:47:20 PM 39.2108 -113.3433 82° East 502 578 35,000  Level Salt Lake Center
Sat 01:48:22 PM 39.2314 -113.1625 82° East 507 583 35,000  Level Salt Lake Center
Sat 01:49:23 PM 39.2514 -112.9819 82° East 509 586 35,000  Level Salt Lake Center
Sat 01:50:25 PM 39.2703 -112.8022 82° East 507 583 35,000  Level Salt Lake Center
Sat 01:51:27 PM 39.2911 -112.6139 82° East 506 582 35,000  Level Salt Lake Center
Sat 01:52:28 PM 39.3361 -112.4042 74° East 508 585 35,000  Level Salt Lake Center
Sat 01:53:30 PM 39.3881 -112.2358 68° East 507 583 35,000  Level Salt Lake Center
Sat 01:54:32 PM 39.4397 -112.0661 68° East 509 586 35,000  Level Salt Lake Center
Sat 01:55:33 PM 39.4925 -111.8972 68° East 508 585 35,000  Level Salt Lake Center
Sat 01:56:35 PM 39.5444 -111.7283 68° East 508 585 35,000  Level Salt Lake Center
Sat 01:57:37 PM 39.5964 -111.5572 68° East 511 588 35,000  Level Salt Lake Center
Sat 01:58:39 PM 39.6431 -111.3847 71° East 510 587 35,000  Level Salt Lake Center
Sat 01:59:40 PM 39.6681 -111.1703 81° East 515 593 35,000  Level Salt Lake Center
Sat 02:00:42 PM 39.6922 -110.9986 80° East 509 586 35,000  Level Salt Lake Center
Sat 02:01:44 PM 39.7217 -110.7972 79° East 507 583 35,000  Level Salt Lake Center
Sat 02:02:45 PM 39.7450 -110.6247 80° East 507 583 35,000  Level Salt Lake Center
Sat 02:03:47 PM 39.7706 -110.4228 81° East 507 583 35,000  Level Salt Lake Center
Sat 02:04:48 PM 39.7917 -110.2503 81° East 505 581 35,000  Level Salt Lake Center
Sat 02:05:50 PM 39.8147 -110.0781 80° East 506 582 35,000  Level Salt Lake Center
Sat 02:06:52 PM 39.8394 -109.8761 81° East 507 583 35,000  Level Salt Lake Center
Sat 02:07:53 PM 39.8611 -109.7028 81° East 507 583 35,000  Level Salt Lake Center
Sat 02:08:41 PM 39.8781 -109.5569 81° East 506 582 35,000  Level Denver Center
Sat 02:09:43 PM 39.9039 -109.3536 81° East 508 585 35,000  Level Denver Center
Sat 02:10:44 PM 39.9250 -109.1806 81° East 505 581 35,000  Level Denver Center
Sat 02:11:46 PM 39.9456 -109.0050 81° East 506 582 35,000  Level Denver Center
Sat 02:12:48 PM 39.9692 -108.8011 81° East 504 580 35,000  Level Denver Center
Sat 02:13:49 PM 39.9892 -108.6272 81° East 503 579 35,000  Level Denver Center
Sat 02:14:51 PM 40.0083 -108.4539 82° East 502 578 35,000  Level Denver Center
Sat 02:15:53 PM 40.0317 -108.2525 81° East 500 575 35,000  Level Denver Center
Sat 02:16:54 PM 40.0508 -108.0800 82° East 499 574 35,000  Level Denver Center
Sat 02:17:56 PM 40.0750 -107.8789 81° East 501 577 35,000  Level Denver Center
Sat 02:18:58 PM 40.1167 -107.7147 72° East 498 573 35,000  Level Denver Center
Sat 02:19:59 PM 40.1542 -107.5483 74° East 498 573 35,000  Level Denver Center
Sat 02:21:01 PM 40.1986 -107.3550 73° East 498 573 35,000  Level Denver Center
Sat 02:22:02 PM 40.2367 -107.1881 73° East 498 573 35,000  Level Denver Center
Sat 02:23:04 PM 40.2794 -106.9950 74° East 497 572 35,000  Level Denver Center
Sat 02:24:06 PM 40.3181 -106.8281 73° East 496 571 35,000  Level Denver Center
Sat 02:25:07 PM 40.3567 -106.6539 74° East 495 570 35,000  Level Denver Center
Sat 02:26:09 PM 40.3967 -106.4714 74° East 493 567 35,000  Level Denver Center
Sat 02:27:10 PM 40.4322 -106.3064 74° East 492 566 35,000  Level Denver Center
Sat 02:28:12 PM 40.4719 -106.1214 74° East 492 566 35,000  Level Denver Center
Sat 02:29:13 PM 40.5097 -105.9472 74° East 490 564 35,000  Level Denver Center
Sat 02:30:15 PM 40.5450 -105.7750 75° East 486 559 35,000  Level Denver Center
Sat 02:31:17 PM 40.5817 -105.6025 74° East 485 558 35,000  Level Denver Center
Sat 02:32:18 PM 40.6175 -105.4317 75° East 479 551 35,000  Level Denver Center
Sat 02:33:20 PM 40.6517 -105.2611 75° East 477 549 35,000  Level Denver Center
Sat 02:34:21 PM 40.6864 -105.0925 75° East 472 543 35,000  Level Denver Center
Sat 02:35:23 PM 40.7267 -104.8969 75° East 471 542 35,000  Level Denver Center
Sat 02:36:36 PM 40.7608 -104.7264 75° East 473 544 35,000  Level Denver Center
Sat 02:37:38 PM 40.7997 -104.5311 75° East 468 539 35,000  Level Denver Center
Sat 02:38:40 PM 40.8328 -104.3636 75° East 466 536 35,000  Level Denver Center
Sat 02:39:41 PM 40.8650 -104.1969 76° East 464 534 35,000  Level Denver Center
Sat 02:40:43 PM 40.8986 -104.0325 75° East 460 529 35,000  Level Denver Center
Sat 02:41:44 PM 40.9294 -103.8697 76° East 454 522 35,000  Level Denver Center
Sat 02:42:46 PM 40.9608 -103.7064 76° East 451 519 35,000  Level Denver Center
Sat 02:43:47 PM 40.9914 -103.5422 76° East 450 518 35,000  Level Denver Center
Sat 02:44:49 PM 41.0253 -103.3631 76° East 451 519 35,000  Level Denver Center
Sat 02:45:50 PM 41.0547 -103.2083 76° East 451 519 35,000  Level Denver Center
Sat 02:46:52 PM 41.0878 -103.0289 76° East 452 520 35,000  Level Denver Center
Sat 02:47:53 PM 41.1042 -102.8856 81° East 445 512 35,000  Level Denver Center
Sat 02:48:54 PM 41.1181 -102.7039 84° East 443 510 35,000  Level Denver Center
Sat 02:49:56 PM 41.1300 -102.5469 84° East 444 511 35,000  Level Denver Center
Sat 02:50:57 PM 41.1433 -102.3642 84° East 446 513 35,000  Level Denver Center
Sat 02:51:59 PM 41.1553 -102.2086 84° East 442 509 35,000  Level Denver Center
Sat 02:53:01 PM 41.1661 -102.0539 85° East 440 506 35,000  Level Denver Center
Sat 02:54:02 PM 41.1808 -101.8736 84° East 440 506 35,000  Level Denver Center
Sat 02:55:03 PM 41.1919 -101.7211 84° East 435 501 35,000  Level Denver Center
Sat 02:56:05 PM 41.2033 -101.5422 85° East 435 501 35,000  Level Denver Center
Sat 02:57:06 PM 41.2142 -101.3886 85° East 436 502 35,000  Level Denver Center
Sat 02:58:08 PM 41.2247 -101.2350 85° East 434 499 35,000  Level Denver Center
Sat 02:59:09 PM 41.2350 -101.0542 86° East 437 503 35,000  Level Denver Center
Sat 03:00:11 PM 41.2458 -100.8986 85° East 439 505 35,000  Level Denver Center
Sat 03:01:12 PM 41.2556 -100.7414 85° East 442 509 35,000  Level Denver Center
Sat 03:02:14 PM 41.2664 -100.5594 85° East 440 506 35,000  Level Denver Center
Sat 03:03:15 PM 41.2747 -100.4075 86° East 432 497 35,000  Level Denver Center
Sat 03:04:17 PM 41.2858 -100.2292 85° East 432 497 35,000  Level Denver Center
Sat 03:05:18 PM 41.2933 -100.0764 86° East 433 498 35,000  Level Denver Center
Sat 03:06:20 PM 41.3022 -99.9236 86° East 432 497 35,000  Level Denver Center
Sat 03:07:33 PM 41.3136 -99.7242 86° East 425 489 35,000  Level Denver Center
Sat 03:08:35 PM 41.3211 -99.5736 86° East 425 489 35,000  Level Denver Center
Sat 03:09:36 PM 41.3289 -99.4156 86° East 424 488 35,000  Level Denver Center
Sat 03:10:38 PM 41.3364 -99.2586 86° East 422 486 35,000  Level Denver Center
Sat 03:11:39 PM 41.3436 -99.1006 86° East 424 488 35,000  Level Denver Center
Sat 03:12:41 PM 41.3525 -98.9100 86° East 425 489 35,000  Level Denver Center
Sat 03:13:44 PM 41.3583 -98.7539 87° East 426 490 35,000  Level Minneapolis Center
Sat 03:14:45 PM 41.3653 -98.5956 87° East 428 493 35,000  Level Minneapolis Center
Sat 03:15:47 PM 41.3731 -98.4264 86° East 432 497 35,000  Level Minneapolis Center
Sat 03:16:48 PM 41.3789 -98.2639 87° East 435 501 35,000  Level Minneapolis Center
Sat 03:17:49 PM 41.3842 -98.1014 87° East 437 503 35,000  Level Minneapolis Center
Sat 03:18:51 PM 41.3889 -97.9508 88° East 436 502 35,000  Level Minneapolis Center
Sat 03:19:52 PM 41.3933 -97.7892 88° East 437 503 35,000  Level Minneapolis Center
Sat 03:20:53 PM 41.3975 -97.6275 88° East 438 504 35,000  Level Minneapolis Center
Sat 03:21:55 PM 41.4033 -97.4339 88° East 436 502 35,000  Level Minneapolis Center
Sat 03:22:56 PM 41.4075 -97.2711 88° East 438 504 35,000  Level Minneapolis Center
Sat 03:23:58 PM 41.4111 -97.1097 88° East 437 503 35,000  Level Minneapolis Center
Sat 03:24:59 PM 41.4142 -96.9478 89° East 436 502 35,000 148 Level Minneapolis Center
Sat 03:26:00 PM 41.4169 -96.7853 89° East 438 504 35,300 537 Climbing Minneapolis Center
Sat 03:27:02 PM 41.4208 -96.6203 88° East 445 512 36,100 829 Climbing Minneapolis Center
Sat 03:28:03 PM 41.4242 -96.4569 88° East 442 509 37,000 439 Climbing Minneapolis Center
Sat 03:29:05 PM 41.4261 -96.2819 89° East 438 504 37,000  Level Minneapolis Center
Sat 03:30:06 PM 41.4278 -96.1222 89° East 433 498 37,000  Level Minneapolis Center
Sat 03:31:07 PM 41.4306 -95.9617 89° East 432 497 37,000  Level Minneapolis Center
Sat 03:32:09 PM 41.4328 -95.8031 89° East 428 493 37,000  Level Minneapolis Center
Sat 03:33:10 PM 41.4336 -95.6311 90° East 427 491 37,000  Level Minneapolis Center
Sat 03:34:11 PM 41.4356 -95.4872 89° East 426 490 37,000  Level Minneapolis Center
Sat 03:35:13 PM 41.4411 -95.3317 87° East 422 486 37,000  Level Minneapolis Center
Sat 03:36:14 PM 41.4611 -95.1464 82° East 421 484 37,000  Level Minneapolis Center
Sat 03:37:16 PM 41.4747 -94.9903 83° East 423 487 37,000  Level Minneapolis Center
Sat 03:38:17 PM 41.4889 -94.8353 83° East 422 486 37,000  Level Minneapolis Center
Sat 03:39:19 PM 41.5033 -94.6803 83° East 422 486 37,000  Level Minneapolis Center
Sat 03:40:20 PM 41.5169 -94.5258 83° East 420 483 37,000  Level Minneapolis Center
Sat 03:41:21 PM 41.5303 -94.3733 83° East 415 478 37,000  Level Minneapolis Center
Sat 03:42:23 PM 41.5442 -94.2144 83° East 418 481 37,000  Level Minneapolis Center
Sat 03:43:24 PM 41.5553 -94.0633 84° East 414 476 37,000  Level Minneapolis Center
Sat 03:44:26 PM 41.5686 -93.9097 83° East 417 480 37,000  Level Minneapolis Center
Sat 03:45:27 PM 41.5808 -93.7539 84° East 421 484 37,000  Level Minneapolis Center
Sat 03:46:29 PM 41.5961 -93.5681 84° East 422 486 37,000  Level Minneapolis Center
Sat 03:47:30 PM 41.6094 -93.4139 83° East 420 483 37,000  Level Minneapolis Center
Sat 03:48:31 PM 41.6214 -93.2586 84° East 421 484 37,000  Level Minneapolis Center
Sat 03:49:33 PM 41.6331 -93.1047 84° East 419 482 37,000  Level Minneapolis Center
Sat 03:50:34 PM 41.6439 -92.9539 84° East 413 475 37,000  Level Minneapolis Center
Sat 03:51:36 PM 41.6547 -92.8019 84° East 412 474 37,000  Level Minneapolis Center
Sat 03:52:37 PM 41.6653 -92.6522 85° East 409 471 37,000  Level Minneapolis Center
Sat 03:53:02 PM 41.6700 -92.5894 84° East 405 466 37,000  Level Chicago Center
Sat 03:54:04 PM 41.6831 -92.4100 84° East 407 468 37,000  Level Chicago Center
Sat 03:55:05 PM 41.6931 -92.2603 85° East 407 468 37,000  Level Chicago Center
Sat 03:56:07 PM 41.7028 -92.1086 85° East 411 473 37,000  Level Chicago Center
Sat 03:57:09 PM 41.7128 -91.9611 85° East 408 470 37,000  Level Chicago Center
Sat 03:58:11 PM 41.7225 -91.8128 85° East 407 468 37,000  Level Chicago Center
Sat 03:59:13 PM 41.7336 -91.6333 85° East 407 468 37,000  Level Chicago Center
Sat 04:00:14 PM 41.7425 -91.4850 85° East 406 467 37,000  Level Chicago Center
Sat 04:01:16 PM 41.7525 -91.3344 85° East 409 471 37,000  Level Chicago Center
Sat 04:02:18 PM 41.7600 -91.1856 86° East 407 468 37,000  Level Chicago Center
Sat 04:03:20 PM 41.7689 -91.0342 85° East 412 474 37,000  Level Chicago Center
Sat 04:04:22 PM 41.7775 -90.8833 86° East 411 473 37,000  Level Chicago Center
Sat 04:05:23 PM 41.7872 -90.7011 86° East 413 475 37,000  Level Chicago Center
Sat 04:06:25 PM 41.7953 -90.5492 86° East 413 475 37,000  Level Chicago Center
Sat 04:07:27 PM 41.8039 -90.3961 86° East 415 478 37,000  Level Chicago Center
Sat 04:08:29 PM 41.8114 -90.2436 86° East 416 479 37,000  Level Chicago Center
Sat 04:09:31 PM 41.8197 -90.0917 86° East 415 478 37,000  Level Chicago Center
Sat 04:10:32 PM 41.8283 -89.9047 86° East 414 476 37,000  Level Chicago Center
Sat 04:11:34 PM 41.8353 -89.7539 86° East 410 472 37,000  Level Chicago Center
Sat 04:12:36 PM 41.8411 -89.6047 87° East 406 467 37,000  Level Chicago Center
Sat 04:13:38 PM 41.8492 -89.4519 86° East 412 474 37,000  Level Chicago Center
Sat 04:14:39 PM 41.8550 -89.3019 87° East 407 468 37,000  Level Chicago Center
Sat 04:15:41 PM 41.8589 -89.1556 88° East 399 459 37,000  Level Chicago Center
Sat 04:16:43 PM 41.8667 -88.9750 87° East 403 464 37,000  Level Chicago Center
Sat 04:17:45 PM 41.8722 -88.8256 87° East 403 464 37,000  Level Chicago Center
Sat 04:18:47 PM 41.8778 -88.6739 87° East 406 467 37,000  Level Chicago Center
Sat 04:19:48 PM 41.8828 -88.5217 87° East 409 471 37,000  Level Chicago Center
Sat 04:20:50 PM 41.8883 -88.3692 87° East 410 472 37,000  Level Chicago Center
Sat 04:21:52 PM 41.8939 -88.2156 87° East 411 473 37,000  Level Chicago Center
Sat 04:22:53 PM 41.8989 -88.0611 87° East 413 475 37,000  Level Chicago Center
Sat 04:23:55 PM 41.9036 -87.9086 88° East 409 471 37,000  Level Chicago Center
Sat 04:24:57 PM 41.9083 -87.7267 88° East 408 470 37,000  Level Chicago Center
Sat 04:25:59 PM 41.9125 -87.5750 88° East 407 468 37,000  Level Chicago Center
Sat 04:27:00 PM 41.9164 -87.4247 88° East 405 466 37,000  Level Chicago Center
Sat 04:28:02 PM 41.9200 -87.2733 88° East 406 467 37,000  Level Chicago Center
Sat 04:29:04 PM 41.9225 -87.1222 89° East 407 468 37,000  Level Chicago Center
Sat 04:30:06 PM 41.9261 -86.9708 88° East 409 471 37,000  Level Chicago Center
Sat 04:31:07 PM 41.9297 -86.8200 88° East 407 468 37,000  Level Chicago Center
Sat 04:32:09 PM 41.9333 -86.6442 88° East 406 467 37,000  Level Chicago Center
Sat 04:33:11 PM 41.9350 -86.4922 89° East 408 470 37,000  Level Chicago Center
Sat 04:34:12 PM 41.9375 -86.3386 89° East 412 474 37,000  Level Chicago Center
Sat 04:35:14 PM 41.9408 -86.1856 88° East 412 474 37,000  Level Chicago Center
Sat 04:36:16 PM 41.9425 -86.0294 89° East 416 479 37,000  Level Chicago Center
Sat 04:37:18 PM 41.9450 -85.8753 89° East 415 478 37,000  Level Chicago Center
Sat 04:38:19 PM 41.9469 -85.7197 89° East 415 478 37,000  Level Chicago Center
Sat 04:39:21 PM 41.9489 -85.5325 89° East 414 476 37,000  Level Chicago Center
Sat 04:40:23 PM 41.9511 -85.3753 89° East 415 478 37,000  Level Chicago Center
Sat 04:41:24 PM 41.9511 -85.2186 90° East 416 479 37,000  Level Chicago Center
Sat 04:42:26 PM 41.9508 -85.0622 90° East 416 479 37,000  Level Chicago Center
Sat 04:43:28 PM 41.9506 -84.9064 90° East 416 479 37,000  Level Chicago Center
Sat 04:44:30 PM 41.9500 -84.7500 90° East 417 480 37,000  Level Chicago Center
Sat 04:45:31 PM 41.9483 -84.5950 91° East 416 479 37,000  Level Chicago Center
Sat 04:46:33 PM 41.9481 -84.4394 90° East 416 479 37,000  Level Chicago Center
Sat 04:47:35 PM 41.9461 -84.2847 91° East 415 478 37,000  Level Chicago Center
Sat 04:48:36 PM 41.9408 -84.1175 92° East 414 476 37,000  Level Cleveland Center
Sat 04:49:36 PM 41.9392 -83.9639 91° East 414 476 37,000  Level Cleveland Center
Sat 04:50:36 PM 41.9356 -83.8072 92° East 414 476 37,000  Level Cleveland Center
Sat 04:51:36 PM 41.9333 -83.6564 91° East 409 471 37,000  Level Cleveland Center
Sat 04:52:36 PM 41.9353 -83.5031 89° East 409 471 37,000  Level Cleveland Center
Sat 04:53:36 PM 41.9333 -83.3325 91° East 409 471 37,000  Level Cleveland Center
Sat 04:54:36 PM 41.9303 -83.1928 92° East 409 471 37,000  Level Cleveland Center
Sat 04:55:36 PM 41.9294 -83.0364 90° East 409 471 37,000  Level Cleveland Center
Sat 04:56:36 PM 41.9306 -82.8831 89° East 409 471 37,000  Level Cleveland Center
Sat 04:57:36 PM 41.9275 -82.7239 91° East 414 476 37,000  Level Cleveland Center
Sat 04:58:36 PM 41.9261 -82.5675 91° East 414 476 37,000  Level Cleveland Center
Sat 04:59:36 PM 41.9244 -82.4111 91° East 414 476 37,000  Level Cleveland Center
Sat 05:00:36 PM 41.9250 -82.2519 90° East 419 482 37,000  Level Cleveland Center
Sat 05:01:36 PM 41.9228 -82.0986 91° East 419 482 37,000  Level Cleveland Center
Sat 05:02:36 PM 41.9186 -81.9422 92° East 425 489 37,000  Level Cleveland Center
Sat 05:03:36 PM 41.9119 -81.7858 93° East 425 489 37,000  Level Cleveland Center
Sat 05:04:36 PM 41.8989 -81.6292 96° East 425 489 37,000  Level Cleveland Center
Sat 05:05:36 PM 41.8856 -81.4728 96° East 425 489 37,000  Level Cleveland Center
Sat 05:06:36 PM 41.8700 -81.3053 97° East 425 489 37,000  Level Cleveland Center
Sat 05:07:36 PM 41.8544 -81.1464 97° East 425 489 37,000  Level Cleveland Center
Sat 05:08:36 PM 41.8406 -80.9872 97° East 431 496 37,000  Level Cleveland Center
Sat 05:09:36 PM 41.8242 -80.8311 98° East 431 496 37,000 -300 Level Cleveland Center
Sat 05:10:36 PM 41.8097 -80.6722 97° East 431 496 36,400 -550 Descending Cleveland Center
Sat 05:11:36 PM 41.7931 -80.5053 98° East 431 496 35,900 -700 Descending Cleveland Center
Sat 05:12:36 PM 41.7764 -80.3436 98° East 436 502 35,000 -450 Descending Cleveland Center
Sat 05:13:36 PM 41.7614 -80.1933 98° East 450 518 35,000  Level Cleveland Center
Sat 05:14:36 PM 41.7439 -80.0267 98° East 456 525 35,000  Level Cleveland Center
Sat 05:15:36 PM 41.7264 -79.8597 98° East 456 525 35,000  Level Cleveland Center
Sat 05:16:36 PM 41.7083 -79.6903 98° East 456 525 35,000  Level Cleveland Center
Sat 05:17:36 PM 41.6903 -79.5069 97° East 456 525 35,000  Level Cleveland Center
Sat 05:18:36 PM 41.6719 -79.3378 98° East 456 525 35,000  Level Cleveland Center
Sat 05:19:36 PM 41.6531 -79.1658 98° East 461 531 35,000  Level Cleveland Center
Sat 05:20:36 PM 41.6342 -78.9967 98° East 461 531 35,000  Level Cleveland Center
Sat 05:21:36 PM 41.6150 -78.8278 99° East 466 536 35,000  Level Cleveland Center
Sat 05:22:36 PM 41.5958 -78.6644 99° East 461 531 35,000 -100 Level Cleveland Center
Sat 05:23:36 PM 41.5761 -78.4958 99° East 461 531 34,800 -550 Descending Cleveland Center
Sat 05:24:36 PM 41.5564 -78.3300 99° East 461 531 33,900 -895 Descending Cleveland Center
Sat 05:25:30 PM 41.5397 -78.1881 99° East 454 522 33,100 -947 Descending New York Center
Sat 05:26:30 PM 41.5186 -78.0222 100° East 447 514 32,100 -950 Descending New York Center
Sat 05:27:30 PM 41.4956 -77.8533 100° East 452 520 31,200 -555 Descending New York Center
Sat 05:28:29 PM 41.4739 -77.6906 100° East 452 520 31,000 -101 Descending New York Center
Sat 05:29:29 PM 41.4481 -77.5244 102° East 452 520 31,000  Level New York Center
Sat 05:31:32 PM 41.4031 -77.2072 101° East 452 520 31,000  Level New York Center
Sat 05:32:29 PM 41.3786 -77.0444 101° East 452 520 31,000 -508 Level New York Center
Sat 05:33:30 PM 41.3536 -76.8819 102° East 452 520 30,000 -1,537 Descending New York Center
Sat 05:34:30 PM 41.3242 -76.7272 104° East 441 507 27,900 -2,100 Descending New York Center
Sat 05:35:30 PM 41.2853 -76.5858 110° East 427 491 25,800 -2,281 Descending New York Center
Sat 05:36:31 PM 41.2428 -76.4331 110° East 409 471 23,300 -2,218 Descending New York Center
Sat 05:37:29 PM 41.2056 -76.2947 110° East 398 458 21,400 -1,412 Descending New York Center
Sat 05:38:30 PM 41.1717 -76.1681 110° East 387 445 20,500 -942 Descending New York Center
Sat 05:39:30 PM 41.1400 -76.0414 108° East 371 427 19,500 -1,091 Descending New York Center
Sat 05:40:31 PM 41.1056 -75.9203 111° Southeast 358 412 18,300 -1,361 Descending New York Center
Sat 05:41:29 PM 41.0753 -75.8025 109° East 347 399 16,800 -1,780 Descending New York Center
Sat 05:42:29 PM 41.0464 -75.6986 110° East 336 387 14,800 -1,950 Descending New York Center
Sat 05:43:29 PM 41.0156 -75.5836 110° East 336 387 12,900 -893 Descending New York Center
Sat 05:44:30 PM 40.9808 -75.4656 111° Southeast 326 375 13,000 -98 Climbing New York Center
Sat 05:45:31 PM 40.9497 -75.3564 111° Southeast 321 369 12,700 -992 Descending New York Center
Sat 05:46:31 PM 40.9183 -75.2497 111° Southeast 316 364 11,000 -1,322 Descending New York Center
Sat 05:47:29 PM 40.8931 -75.1467 108° East 305 351 10,100 -1,017 Descending New York Center
Sat 05:48:29 PM 40.8689 -75.0656 111° Southeast 275 316 9,000 -1,240 Descending New York Center
Sat 05:49:30 PM 40.8431 -74.9761 111° Southeast 269 310 7,600 -992 Descending New York Center
Sat 05:50:30 PM 40.8064 -74.8889 119° Southeast 262 302 7,000 -496 Descending New York Center
Sat 05:51:31 PM 40.7714 -74.8156 122° Southeast 255 293 6,600 -496 Descending New York Center
Sat 05:52:31 PM 40.7450 -74.7372 114° Southeast 233 268 6,000 -300 Descending New York Center
Sat 05:53:31 PM 40.7639 -74.6672 70° East 201 231 6,000  Level New York Center
Sat 05:54:29 PM 40.7975 -74.5950 58° Northeast 207 238 6,000 -303 Level New York Center
Sat 05:55:30 PM 40.8247 -74.5333 60° Northeast 217 250 5,400 -492 Descending New York Center
Sat 05:56:31 PM 40.8561 -74.4556 62° Northeast 217 250 5,000 -200 Descending New York Center
Sat 05:57:30 PM 40.8789 -74.3936 64° Northeast 217 250 5,000 -51 Level New York Center
Sat 05:58:29 PM 40.8900 -74.3064 80° East 212 244 4,900 -504 Descending New York Center
Sat 05:59:29 PM 40.9003 -74.2383 79° East 212 244 4,000 -701 Descending New York Center
Sat 05:59:46 PM 40.9000 -74.2000 91° East 218 251 4,000 -312 Level New York TRACON
Sat 06:00:46 PM 40.8833 -74.1333 108° East 221 254 3,600 -500 Descending New York TRACON
Sat 06:01:46 PM 40.8333 -74.0833 143° Southeast 212 244 3,000 -789 Descending New York TRACON
Sat 06:02:40 PM 40.8000 -74.1000 201° Southwest 209 241 2,100 -1,000 Descending New York TRACON
Sat 06:03:40 PM 40.7500 -74.1333 207° Southwest 172 198 1,100 -1,000 Descending New York TRACON

Login

Don't have an account? Register now (free) for customized features, flight alerts, and more!